sensor_id;sensor_type;location;lat;lon;timestamp;pressure;altitude;pressure_sealevel;temperature;humidity
1207;BME280;593;53.184;8.216;2022-08-25T00:01:00;101581.25;;;24.89;59.83
1207;BME280;593;53.184;8.216;2022-08-25T00:03:25;101572.91;;;24.89;59.78
1207;BME280;593;53.184;8.216;2022-08-25T00:05:50;101589.72;;;24.93;59.77
1207;BME280;593;53.184;8.216;2022-08-25T00:08:15;101583.34;;;24.92;59.81
1207;BME280;593;53.184;8.216;2022-08-25T00:10:41;101576.66;;;24.81;59.69
1207;BME280;593;53.184;8.216;2022-08-25T00:13:07;101589.97;;;24.88;59.92
1207;BME280;593;53.184;8.216;2022-08-25T00:15:33;101585.13;;;24.84;59.91
1207;BME280;593;53.184;8.216;2022-08-25T00:17:59;101566.84;;;24.71;60.29
1207;BME280;593;53.184;8.216;2022-08-25T00:20:26;101582.59;;;24.79;60.33
1207;BME280;593;53.184;8.216;2022-08-25T00:22:52;101578.53;;;24.77;60.33
1207;BME280;593;53.184;8.216;2022-08-25T00:25:18;101554.59;;;24.60;60.62
1207;BME280;593;53.184;8.216;2022-08-25T00:27:43;101571.59;;;24.71;60.72
1207;BME280;593;53.184;8.216;2022-08-25T00:30:09;101576.59;;;24.65;60.90
1207;BME280;593;53.184;8.216;2022-08-25T00:32:35;101582.97;;;24.66;60.77
1207;BME280;593;53.184;8.216;2022-08-25T00:35:01;101566.78;;;24.56;61.03
1207;BME280;593;53.184;8.216;2022-08-25T00:37:27;101583.47;;;24.56;60.96
1207;BME280;593;53.184;8.216;2022-08-25T00:39:52;101585.56;;;24.59;60.92
1207;BME280;593;53.184;8.216;2022-08-25T00:42:19;101582.31;;;24.57;61.38
1207;BME280;593;53.184;8.216;2022-08-25T00:44:45;101571.69;;;24.47;61.64
1207;BME280;593;53.184;8.216;2022-08-25T00:47:11;101575.31;;;24.47;61.73
1207;BME280;593;53.184;8.216;2022-08-25T00:49:55;101580.50;;;24.49;61.86
1207;BME280;593;53.184;8.216;2022-08-25T00:52:25;101583.97;;;24.46;61.73
1207;BME280;593;53.184;8.216;2022-08-25T00:54:57;101583.53;;;24.44;61.92
1207;BME280;593;53.184;8.216;2022-08-25T00:57:38;101587.00;;;24.41;62.15
1207;BME280;593;53.184;8.216;2022-08-25T01:00:12;101578.47;;;24.34;62.22
1207;BME280;593;53.184;8.216;2022-08-25T01:02:39;101581.63;;;24.32;62.45
1207;BME280;593;53.184;8.216;2022-08-25T01:05:05;101588.78;;;24.33;62.51
1207;BME280;593;53.184;8.216;2022-08-25T01:07:30;101583.00;;;24.26;62.79
1207;BME280;593;53.184;8.216;2022-08-25T01:09:57;101578.59;;;24.25;62.50
1207;BME280;593;53.184;8.216;2022-08-25T01:12:24;101585.66;;;24.22;62.83
1207;BME280;593;53.184;8.216;2022-08-25T01:14:50;101588.38;;;24.19;62.79
1207;BME280;593;53.184;8.216;2022-08-25T01:17:16;101583.94;;;24.18;63.08
1207;BME280;593;53.184;8.216;2022-08-25T01:19:41;101582.22;;;24.13;62.84
1207;BME280;593;53.184;8.216;2022-08-25T01:22:07;101584.91;;;24.10;63.16
1207;BME280;593;53.184;8.216;2022-08-25T01:27:23;101582.34;;;24.05;63.53
1207;BME280;593;53.184;8.216;2022-08-25T01:29:49;101582.22;;;24.01;63.56
1207;BME280;593;53.184;8.216;2022-08-25T01:32:33;101581.88;;;24.03;63.99
1207;BME280;593;53.184;8.216;2022-08-25T01:35:05;101578.19;;;23.99;63.98
1207;BME280;593;53.184;8.216;2022-08-25T01:37:33;101592.44;;;23.97;64.22
1207;BME280;593;53.184;8.216;2022-08-25T01:40:04;101590.00;;;23.96;64.44
1207;BME280;593;53.184;8.216;2022-08-25T01:45:34;101580.03;;;23.83;64.34
1207;BME280;593;53.184;8.216;2022-08-25T01:48:08;101594.53;;;23.88;64.82
1207;BME280;593;53.184;8.216;2022-08-25T01:50:43;101589.19;;;23.83;64.72
1207;BME280;593;53.184;8.216;2022-08-25T01:53:29;101597.53;;;23.83;64.77
1207;BME280;593;53.184;8.216;2022-08-25T01:55:56;101587.84;;;23.77;65.07
1207;BME280;593;53.184;8.216;2022-08-25T02:01:38;101589.69;;;23.73;65.14
1207;BME280;593;53.184;8.216;2022-08-25T02:04:03;101587.59;;;23.70;65.35
1207;BME280;593;53.184;8.216;2022-08-25T02:06:31;101588.06;;;23.72;65.44
1207;BME280;593;53.184;8.216;2022-08-25T02:09:00;101585.97;;;23.69;65.80
1207;BME280;593;53.184;8.216;2022-08-25T02:11:26;101587.50;;;23.67;65.92
1207;BME280;593;53.184;8.216;2022-08-25T02:13:52;101579.84;;;23.64;66.30
1207;BME280;593;53.184;8.216;2022-08-25T02:16:24;101580.91;;;23.59;66.65
1207;BME280;593;53.184;8.216;2022-08-25T02:18:52;101575.22;;;23.55;66.29
1207;BME280;593;53.184;8.216;2022-08-25T02:21:18;101578.34;;;23.54;66.69
1207;BME280;593;53.184;8.216;2022-08-25T02:23:43;101579.25;;;23.58;66.58
1207;BME280;593;53.184;8.216;2022-08-25T02:26:09;101583.91;;;23.54;66.88
1207;BME280;593;53.184;8.216;2022-08-25T02:28:35;101578.22;;;23.50;66.77
1207;BME280;593;53.184;8.216;2022-08-25T02:31:03;101581.81;;;23.51;67.41
1207;BME280;593;53.184;8.216;2022-08-25T02:33:28;101569.66;;;23.43;67.25
1207;BME280;593;53.184;8.216;2022-08-25T02:35:57;101576.50;;;23.46;67.89
1207;BME280;593;53.184;8.216;2022-08-25T02:38:22;101583.53;;;23.43;67.84
1207;BME280;593;53.184;8.216;2022-08-25T02:40:48;101583.41;;;23.40;67.66
1207;BME280;593;53.184;8.216;2022-08-25T02:43:14;101579.03;;;23.39;68.19
1207;BME280;593;53.184;8.216;2022-08-25T02:45:39;101583.31;;;23.36;68.02
1207;BME280;593;53.184;8.216;2022-08-25T02:48:05;101578.41;;;23.33;68.24
1207;BME280;593;53.184;8.216;2022-08-25T02:50:30;101578.78;;;23.32;68.52
1207;BME280;593;53.184;8.216;2022-08-25T02:52:57;101571.81;;;23.26;68.36
1207;BME280;593;53.184;8.216;2022-08-25T02:55:22;101580.97;;;23.26;68.94
1207;BME280;593;53.184;8.216;2022-08-25T02:57:48;101579.69;;;23.24;68.66
1207;BME280;593;53.184;8.216;2022-08-25T03:00:14;101580.81;;;23.23;68.43
1207;BME280;593;53.184;8.216;2022-08-25T03:02:41;101585.59;;;23.22;68.88
1207;BME280;593;53.184;8.216;2022-08-25T03:05:08;101584.19;;;23.16;69.09
1207;BME280;593;53.184;8.216;2022-08-25T03:07:34;101589.72;;;23.16;69.37
1207;BME280;593;53.184;8.216;2022-08-25T03:10:10;101578.03;;;23.11;69.44
1207;BME280;593;53.184;8.216;2022-08-25T03:12:36;101582.78;;;23.10;69.41
1207;BME280;593;53.184;8.216;2022-08-25T03:15:01;101588.31;;;23.10;69.80
1207;BME280;593;53.184;8.216;2022-08-25T03:17:27;101582.31;;;23.08;69.62
1207;BME280;593;53.184;8.216;2022-08-25T03:19:53;101578.63;;;23.04;69.80
1207;BME280;593;53.184;8.216;2022-08-25T03:22:18;101572.09;;;23.00;69.83
1207;BME280;593;53.184;8.216;2022-08-25T03:24:44;101568.88;;;22.98;70.10
1207;BME280;593;53.184;8.216;2022-08-25T03:27:10;101573.97;;;22.96;70.21
1207;BME280;593;53.184;8.216;2022-08-25T03:29:35;101566.31;;;22.93;70.80
1207;BME280;593;53.184;8.216;2022-08-25T03:32:00;101564.38;;;22.93;70.60
1207;BME280;593;53.184;8.216;2022-08-25T03:34:28;101562.25;;;22.90;70.96
1207;BME280;593;53.184;8.216;2022-08-25T03:36:54;101566.69;;;22.91;71.08
1207;BME280;593;53.184;8.216;2022-08-25T03:39:21;101571.75;;;22.89;71.34
1207;BME280;593;53.184;8.216;2022-08-25T03:41:48;101562.47;;;22.85;71.74
1207;BME280;593;53.184;8.216;2022-08-25T03:44:14;101557.97;;;22.81;71.86
1207;BME280;593;53.184;8.216;2022-08-25T03:46:43;101552.78;;;22.79;72.48
1207;BME280;593;53.184;8.216;2022-08-25T03:49:12;101561.09;;;22.79;72.11
1207;BME280;593;53.184;8.216;2022-08-25T03:51:41;101560.59;;;22.77;72.34
1207;BME280;593;53.184;8.216;2022-08-25T03:54:09;101558.53;;;22.74;72.82
1207;BME280;593;53.184;8.216;2022-08-25T03:56:34;101558.75;;;22.69;72.88
1207;BME280;593;53.184;8.216;2022-08-25T03:59:00;101553.88;;;22.66;72.85
1207;BME280;593;53.184;8.216;2022-08-25T04:01:25;101558.63;;;22.66;72.90
1207;BME280;593;53.184;8.216;2022-08-25T04:03:51;101556.97;;;22.65;73.32
1207;BME280;593;53.184;8.216;2022-08-25T04:06:18;101552.94;;;22.62;73.63
1207;BME280;593;53.184;8.216;2022-08-25T04:08:44;101551.63;;;22.60;73.19
1207;BME280;593;53.184;8.216;2022-08-25T04:11:18;101552.13;;;22.62;74.30
1207;BME280;593;53.184;8.216;2022-08-25T04:13:44;101550.34;;;22.57;74.29
1207;BME280;593;53.184;8.216;2022-08-25T04:16:18;101551.84;;;22.55;74.57
1207;BME280;593;53.184;8.216;2022-08-25T04:18:44;101541.75;;;22.50;74.70
1207;BME280;593;53.184;8.216;2022-08-25T04:21:11;101553.69;;;22.51;75.36
1207;BME280;593;53.184;8.216;2022-08-25T04:23:38;101553.31;;;22.52;75.43
1207;BME280;593;53.184;8.216;2022-08-25T04:26:12;101544.06;;;22.48;75.32
1207;BME280;593;53.184;8.216;2022-08-25T04:28:38;101539.88;;;22.42;75.97
1207;BME280;593;53.184;8.216;2022-08-25T04:31:08;101553.06;;;22.45;76.19
1207;BME280;593;53.184;8.216;2022-08-25T04:33:35;101541.88;;;22.42;76.09
1207;BME280;593;53.184;8.216;2022-08-25T04:36:01;101546.25;;;22.43;76.85
1207;BME280;593;53.184;8.216;2022-08-25T04:38:26;101539.31;;;22.37;77.15
1207;BME280;593;53.184;8.216;2022-08-25T04:41:11;101539.41;;;22.40;77.48
1207;BME280;593;53.184;8.216;2022-08-25T04:43:38;101532.47;;;22.34;77.69
1207;BME280;593;53.184;8.216;2022-08-25T04:46:09;101539.97;;;22.33;78.09
1207;BME280;593;53.184;8.216;2022-08-25T04:48:36;101529.56;;;22.30;78.25
1207;BME280;593;53.184;8.216;2022-08-25T04:51:15;101541.47;;;22.31;78.66
1207;BME280;593;53.184;8.216;2022-08-25T04:53:42;101533.16;;;22.31;78.55
1207;BME280;593;53.184;8.216;2022-08-25T04:56:10;101516.69;;;22.14;78.80
1207;BME280;593;53.184;8.216;2022-08-25T04:58:37;101539.38;;;22.28;79.24
1207;BME280;593;53.184;8.216;2022-08-25T05:01:08;101478.44;;;21.87;79.88
1207;BME280;593;53.184;8.216;2022-08-25T05:03:35;101546.16;;;22.18;80.20
1207;BME280;593;53.184;8.216;2022-08-25T05:06:01;101545.94;;;22.23;80.78
1207;BME280;593;53.184;8.216;2022-08-25T05:08:27;101528.22;;;22.16;81.15
1207;BME280;593;53.184;8.216;2022-08-25T05:10:52;101538.75;;;22.22;81.40
1207;BME280;593;53.184;8.216;2022-08-25T05:13:21;101517.09;;;22.04;81.34
1207;BME280;593;53.184;8.216;2022-08-25T05:15:57;101523.09;;;22.06;81.36
1207;BME280;593;53.184;8.216;2022-08-25T05:18:25;101506.66;;;22.01;81.82
1207;BME280;593;53.184;8.216;2022-08-25T05:20:52;101537.47;;;22.20;82.61
1207;BME280;593;53.184;8.216;2022-08-25T05:23:19;101530.53;;;22.14;83.27
1207;BME280;593;53.184;8.216;2022-08-25T05:25:45;101525.81;;;22.14;83.59
1207;BME280;593;53.184;8.216;2022-08-25T05:28:11;101536.91;;;22.14;84.19
1207;BME280;593;53.184;8.216;2022-08-25T05:30:38;101525.19;;;22.09;84.63
1207;BME280;593;53.184;8.216;2022-08-25T05:33:05;101529.25;;;22.11;84.36
1207;BME280;593;53.184;8.216;2022-08-25T05:35:30;101527.16;;;22.08;84.97
1207;BME280;593;53.184;8.216;2022-08-25T05:37:56;101528.44;;;22.11;85.46
1207;BME280;593;53.184;8.216;2022-08-25T05:40:22;101521.59;;;22.08;85.39
1207;BME280;593;53.184;8.216;2022-08-25T05:42:48;101524.84;;;22.10;86.53
1207;BME280;593;53.184;8.216;2022-08-25T05:45:14;101525.50;;;22.07;86.36
1207;BME280;593;53.184;8.216;2022-08-25T05:47:39;101523.56;;;22.08;87.56
1207;BME280;593;53.184;8.216;2022-08-25T05:50:05;101518.84;;;22.08;88.06
1207;BME280;593;53.184;8.216;2022-08-25T05:52:31;101524.72;;;22.07;88.36
1207;BME280;593;53.184;8.216;2022-08-25T05:54:57;101533.31;;;22.14;88.73
1207;BME280;593;53.184;8.216;2022-08-25T05:57:22;101526.00;;;22.09;88.70
1207;BME280;593;53.184;8.216;2022-08-25T05:59:48;101527.75;;;22.14;89.70
1207;BME280;593;53.184;8.216;2022-08-25T06:02:13;101525.91;;;22.18;89.98
1207;BME280;593;53.184;8.216;2022-08-25T06:04:57;101521.88;;;22.15;91.19
1207;BME280;593;53.184;8.216;2022-08-25T06:07:23;101532.44;;;22.22;91.32
1207;BME280;593;53.184;8.216;2022-08-25T06:09:48;101528.84;;;22.21;92.42
1207;BME280;593;53.184;8.216;2022-08-25T06:12:14;101522.94;;;22.23;92.46
1207;BME280;593;53.184;8.216;2022-08-25T06:14:40;101527.47;;;22.27;92.91
1207;BME280;593;53.184;8.216;2022-08-25T06:17:06;101527.47;;;22.27;93.32
1207;BME280;593;53.184;8.216;2022-08-25T06:19:32;101527.13;;;22.29;93.56
1207;BME280;593;53.184;8.216;2022-08-25T06:21:57;101520.56;;;22.33;93.93
1207;BME280;593;53.184;8.216;2022-08-25T06:24:27;101531.91;;;22.41;95.07
1207;BME280;593;53.184;8.216;2022-08-25T06:26:53;101531.91;;;22.41;95.13
1207;BME280;593;53.184;8.216;2022-08-25T06:29:19;101526.97;;;22.46;95.32
1207;BME280;593;53.184;8.216;2022-08-25T06:31:45;101525.03;;;22.47;94.92
1207;BME280;593;53.184;8.216;2022-08-25T06:34:12;101532.09;;;22.56;95.33
1207;BME280;593;53.184;8.216;2022-08-25T06:36:38;101524.69;;;22.60;95.51
1207;BME280;593;53.184;8.216;2022-08-25T06:39:04;101523.69;;;22.65;96.03
1207;BME280;593;53.184;8.216;2022-08-25T06:41:29;101523.47;;;22.70;96.38
1207;BME280;593;53.184;8.216;2022-08-25T06:43:54;101524.69;;;22.81;96.12
1207;BME280;593;53.184;8.216;2022-08-25T06:46:22;101539.38;;;22.93;96.04
1207;BME280;593;53.184;8.216;2022-08-25T06:48:48;101525.28;;;22.98;95.89
1207;BME280;593;53.184;8.216;2022-08-25T06:51:16;101522.97;;;23.13;95.78
1207;BME280;593;53.184;8.216;2022-08-25T06:53:42;101529.56;;;23.20;95.20
1207;BME280;593;53.184;8.216;2022-08-25T06:56:08;101529.25;;;23.34;94.67
1207;BME280;593;53.184;8.216;2022-08-25T06:58:34;101528.00;;;23.43;94.33
1207;BME280;593;53.184;8.216;2022-08-25T07:01:21;101530.88;;;23.59;94.11
1207;BME280;593;53.184;8.216;2022-08-25T07:03:48;101522.78;;;23.66;93.81
1207;BME280;593;53.184;8.216;2022-08-25T07:06:15;101534.91;;;23.74;92.97
1207;BME280;593;53.184;8.216;2022-08-25T07:08:40;101534.56;;;23.87;92.49
1207;BME280;593;53.184;8.216;2022-08-25T07:11:07;101532.81;;;23.95;91.97
1207;BME280;593;53.184;8.216;2022-08-25T07:13:33;101506.34;;;24.01;91.03
1207;BME280;593;53.184;8.216;2022-08-25T07:15:59;101513.97;;;24.16;91.22
1207;BME280;593;53.184;8.216;2022-08-25T07:18:25;101519.41;;;24.25;90.40
1207;BME280;593;53.184;8.216;2022-08-25T07:20:51;101511.25;;;24.32;90.20
1207;BME280;593;53.184;8.216;2022-08-25T07:23:18;101516.75;;;24.44;89.94
1207;BME280;593;53.184;8.216;2022-08-25T07:25:45;101531.31;;;24.53;89.65
1207;BME280;593;53.184;8.216;2022-08-25T07:28:12;101524.78;;;24.61;89.16
1207;BME280;593;53.184;8.216;2022-08-25T07:30:37;101515.47;;;24.69;88.74
1207;BME280;593;53.184;8.216;2022-08-25T07:33:03;101503.97;;;24.70;88.61
1207;BME280;593;53.184;8.216;2022-08-25T07:35:28;101518.88;;;24.90;88.21
1207;BME280;593;53.184;8.216;2022-08-25T07:37:57;101531.16;;;25.05;87.66
1207;BME280;593;53.184;8.216;2022-08-25T07:40:28;101526.13;;;25.10;87.31
1207;BME280;593;53.184;8.216;2022-08-25T07:43:01;101491.53;;;24.96;87.14
1207;BME280;593;53.184;8.216;2022-08-25T07:45:31;101520.00;;;25.20;87.14
1207;BME280;593;53.184;8.216;2022-08-25T07:48:05;101531.06;;;25.17;88.43
1207;BME280;593;53.184;8.216;2022-08-25T07:50:32;101530.00;;;25.21;89.68
1207;BME280;593;53.184;8.216;2022-08-25T07:52:58;101540.59;;;25.16;90.29
1207;BME280;593;53.184;8.216;2022-08-25T07:55:25;101538.25;;;25.18;90.02
1207;BME280;593;53.184;8.216;2022-08-25T07:57:51;101525.84;;;25.15;89.92
1207;BME280;593;53.184;8.216;2022-08-25T08:00:17;101532.34;;;25.19;89.51
1207;BME280;593;53.184;8.216;2022-08-25T08:02:43;101522.63;;;25.13;89.94
1207;BME280;593;53.184;8.216;2022-08-25T08:05:10;101530.88;;;25.25;89.57
1207;BME280;593;53.184;8.216;2022-08-25T08:07:36;101525.78;;;25.27;89.45
1207;BME280;593;53.184;8.216;2022-08-25T08:10:03;101530.81;;;25.37;89.34
1207;BME280;593;53.184;8.216;2022-08-25T08:12:29;101518.19;;;25.43;89.18
1207;BME280;593;53.184;8.216;2022-08-25T08:14:54;101525.69;;;25.55;88.88
1207;BME280;593;53.184;8.216;2022-08-25T08:17:19;101511.81;;;25.59;88.74
1207;BME280;593;53.184;8.216;2022-08-25T08:19:45;101528.59;;;25.78;88.14
1207;BME280;593;53.184;8.216;2022-08-25T08:22:12;101523.38;;;25.76;87.86
1207;BME280;593;53.184;8.216;2022-08-25T08:24:42;101526.03;;;25.88;87.73
1207;BME280;593;53.184;8.216;2022-08-25T08:27:09;101529.44;;;25.97;87.41
1207;BME280;593;53.184;8.216;2022-08-25T08:29:36;101522.03;;;26.05;86.72
1207;BME280;593;53.184;8.216;2022-08-25T08:32:03;101503.56;;;26.00;86.34
1207;BME280;593;53.184;8.216;2022-08-25T08:34:29;101517.88;;;26.15;86.30
1207;BME280;593;53.184;8.216;2022-08-25T08:36:55;101520.38;;;26.20;86.48
1207;BME280;593;53.184;8.216;2022-08-25T08:39:22;101511.19;;;26.19;85.24
1207;BME280;593;53.184;8.216;2022-08-25T08:47:20;101500.59;;;26.28;85.14
1207;BME280;593;53.184;8.216;2022-08-25T08:50:01;101494.72;;;26.33;84.09
1207;BME280;593;53.184;8.216;2022-08-25T08:52:48;101517.78;;;26.49;84.68
1207;BME280;593;53.184;8.216;2022-08-25T08:57:48;101518.03;;;26.63;82.37
1207;BME280;593;53.184;8.216;2022-08-25T09:00:14;101499.09;;;26.53;82.24
1207;BME280;593;53.184;8.216;2022-08-25T09:03:03;101507.00;;;26.70;82.15
1207;BME280;593;53.184;8.216;2022-08-25T09:05:30;101505.81;;;26.71;82.54
1207;BME280;593;53.184;8.216;2022-08-25T09:08:06;101506.38;;;26.77;83.00
1207;BME280;593;53.184;8.216;2022-08-25T09:10:49;101491.13;;;26.74;81.87
1207;BME280;593;53.184;8.216;2022-08-25T09:13:27;101491.78;;;26.87;81.53
1207;BME280;593;53.184;8.216;2022-08-25T09:16:19;101497.88;;;26.93;81.40
1207;BME280;593;53.184;8.216;2022-08-25T09:21:58;101494.38;;;26.99;79.95
1207;BME280;593;53.184;8.216;2022-08-25T09:24:39;101455.28;;;26.77;79.60
1207;BME280;593;53.184;8.216;2022-08-25T09:29:59;101486.06;;;27.03;77.63
1207;BME280;593;53.184;8.216;2022-08-25T09:32:50;101495.41;;;27.14;77.77
1207;BME280;593;53.184;8.216;2022-08-25T09:35:28;101495.09;;;27.19;77.99
1207;BME280;593;53.184;8.216;2022-08-25T09:38:06;101483.50;;;27.17;77.51
1207;BME280;593;53.184;8.216;2022-08-25T09:40:36;101486.41;;;27.24;78.00
1207;BME280;593;53.184;8.216;2022-08-25T09:43:08;101476.84;;;27.25;77.71
1207;BME280;593;53.184;8.216;2022-08-25T09:45:45;101469.28;;;27.25;77.87
1207;BME280;593;53.184;8.216;2022-08-25T09:48:43;101471.84;;;27.38;77.95
1207;BME280;593;53.184;8.216;2022-08-25T09:56:56;101453.81;;;27.58;76.71
1207;BME280;593;53.184;8.216;2022-08-25T09:59:28;101447.81;;;27.59;76.15
1207;BME280;593;53.184;8.216;2022-08-25T10:01:57;101451.94;;;27.69;74.72
1207;BME280;593;53.184;8.216;2022-08-25T10:04:38;101439.19;;;27.71;74.70
1207;BME280;593;53.184;8.216;2022-08-25T10:07:20;101428.88;;;27.75;72.99
1207;BME280;593;53.184;8.216;2022-08-25T10:09:53;101428.91;;;27.79;73.26
1207;BME280;593;53.184;8.216;2022-08-25T10:12:40;101427.75;;;27.83;72.99
1207;BME280;593;53.184;8.216;2022-08-25T10:17:45;101408.31;;;27.94;72.61
1207;BME280;593;53.184;8.216;2022-08-25T10:20:20;101411.53;;;27.96;72.38
1207;BME280;593;53.184;8.216;2022-08-25T10:22:47;101412.44;;;28.04;72.50
1207;BME280;593;53.184;8.216;2022-08-25T10:25:15;101410.50;;;28.08;72.17
1207;BME280;593;53.184;8.216;2022-08-25T10:28:17;101412.16;;;28.12;72.46
1207;BME280;593;53.184;8.216;2022-08-25T10:31:16;101411.00;;;28.17;71.23
1207;BME280;593;53.184;8.216;2022-08-25T10:33:48;101407.84;;;28.22;71.00
1207;BME280;593;53.184;8.216;2022-08-25T10:36:30;101386.66;;;28.21;70.37
1207;BME280;593;53.184;8.216;2022-08-25T10:39:00;101385.47;;;28.22;68.40
1207;BME280;593;53.184;8.216;2022-08-25T10:41:30;101388.69;;;28.24;68.50
1207;BME280;593;53.184;8.216;2022-08-25T10:44:23;101380.69;;;28.22;68.04
1207;BME280;593;53.184;8.216;2022-08-25T10:47:41;101386.81;;;28.35;68.36
1207;BME280;593;53.184;8.216;2022-08-25T10:50:12;101380.44;;;28.41;69.91
1207;BME280;593;53.184;8.216;2022-08-25T10:52:55;101382.03;;;28.39;69.49
1207;BME280;593;53.184;8.216;2022-08-25T10:55:32;101368.44;;;28.41;68.40
1207;BME280;593;53.184;8.216;2022-08-25T10:58:26;101363.66;;;28.41;66.79
1207;BME280;593;53.184;8.216;2022-08-25T11:03:59;101365.03;;;28.58;66.72
1207;BME280;593;53.184;8.216;2022-08-25T11:06:41;101353.50;;;28.63;66.81
1207;BME280;593;53.184;8.216;2022-08-25T11:09:14;101341.47;;;28.63;67.38
1207;BME280;593;53.184;8.216;2022-08-25T11:11:48;101344.38;;;28.73;66.61
1207;BME280;593;53.184;8.216;2022-08-25T11:14:24;101348.78;;;28.78;67.11
1207;BME280;593;53.184;8.216;2022-08-25T11:17:19;101325.13;;;28.72;66.98
1207;BME280;593;53.184;8.216;2022-08-25T11:19:51;101336.47;;;28.89;67.58
1207;BME280;593;53.184;8.216;2022-08-25T11:22:45;101343.69;;;28.94;65.87
1207;BME280;593;53.184;8.216;2022-08-25T11:25:23;101334.06;;;28.91;66.69
1207;BME280;593;53.184;8.216;2022-08-25T11:27:57;101332.13;;;29.02;65.19
1207;BME280;593;53.184;8.216;2022-08-25T11:30:24;101327.31;;;28.99;65.40
1207;BME280;593;53.184;8.216;2022-08-25T11:32:51;101317.31;;;28.98;64.67
1207;BME280;593;53.184;8.216;2022-08-25T11:35:26;101324.53;;;29.06;63.13
1207;BME280;593;53.184;8.216;2022-08-25T11:43:04;101329.38;;;29.09;61.39
1207;BME280;593;53.184;8.216;2022-08-25T11:48:17;101312.19;;;29.14;61.91
1207;BME280;593;53.184;8.216;2022-08-25T11:51:09;101314.69;;;29.23;63.28
1207;BME280;593;53.184;8.216;2022-08-25T11:53:40;101305.44;;;29.23;63.75
1207;BME280;593;53.184;8.216;2022-08-25T11:56:11;101312.31;;;29.32;64.93
1207;BME280;593;53.184;8.216;2022-08-25T11:58:54;101307.50;;;29.36;63.44
1207;BME280;593;53.184;8.216;2022-08-25T12:04:14;101307.16;;;29.45;62.33
1207;BME280;593;53.184;8.216;2022-08-25T12:12:36;101303.97;;;29.53;62.23
1207;BME280;593;53.184;8.216;2022-08-25T12:15:25;101295.19;;;29.62;62.58
1207;BME280;593;53.184;8.216;2022-08-25T12:23:38;101294.41;;;29.72;61.00
1207;BME280;593;53.184;8.216;2022-08-25T12:26:19;101290.81;;;29.75;59.67
1207;BME280;593;53.184;8.216;2022-08-25T12:34:26;101287.25;;;29.78;57.61
1207;BME280;593;53.184;8.216;2022-08-25T12:36:58;101284.03;;;29.83;59.15
1207;BME280;593;53.184;8.216;2022-08-25T12:39:32;101284.84;;;29.87;58.54
1207;BME280;593;53.184;8.216;2022-08-25T12:42:05;101272.03;;;29.90;59.90
1207;BME280;593;53.184;8.216;2022-08-25T12:44:35;101279.66;;;30.00;57.53
1207;BME280;593;53.184;8.216;2022-08-25T12:49:37;101267.22;;;30.11;58.22
1207;BME280;593;53.184;8.216;2022-08-25T12:57:49;101265.63;;;30.21;56.61
1207;BME280;593;53.184;8.216;2022-08-25T13:00:24;101271.22;;;30.24;57.08
1207;BME280;593;53.184;8.216;2022-08-25T13:03:18;101266.44;;;30.28;54.42
1207;BME280;593;53.184;8.216;2022-08-25T13:12:01;101254.78;;;30.44;57.01
1207;BME280;593;53.184;8.216;2022-08-25T13:14:38;101254.41;;;30.53;56.65
1207;BME280;593;53.184;8.216;2022-08-25T13:17:06;101253.56;;;30.59;56.19
1207;BME280;593;53.184;8.216;2022-08-25T13:19:33;101250.38;;;30.61;55.26
1207;BME280;593;53.184;8.216;2022-08-25T13:22:10;101243.16;;;30.60;55.60
1207;BME280;593;53.184;8.216;2022-08-25T13:24:41;101251.13;;;30.72;54.22
1207;BME280;593;53.184;8.216;2022-08-25T13:27:17;101239.50;;;30.70;53.21
1207;BME280;593;53.184;8.216;2022-08-25T13:29:58;101247.53;;;30.75;54.31
1207;BME280;593;53.184;8.216;2022-08-25T13:32:35;101239.09;;;30.78;55.05
1207;BME280;593;53.184;8.216;2022-08-25T13:35:29;101238.25;;;30.85;54.91
1207;BME280;593;53.184;8.216;2022-08-25T13:38:16;101226.25;;;30.91;55.61
1207;BME280;593;53.184;8.216;2022-08-25T13:40:42;101212.56;;;30.83;52.63
1207;BME280;593;53.184;8.216;2022-08-25T13:43:10;101232.22;;;30.97;52.83
1207;BME280;593;53.184;8.216;2022-08-25T13:45:42;101219.34;;;30.99;53.60
1207;BME280;593;53.184;8.216;2022-08-25T13:48:10;101222.97;;;31.00;51.90
1207;BME280;593;53.184;8.216;2022-08-25T13:50:40;101227.38;;;31.04;53.45
1207;BME280;593;53.184;8.216;2022-08-25T13:53:13;101223.31;;;31.09;53.54
1207;BME280;593;53.184;8.216;2022-08-25T13:55:52;101214.47;;;31.14;50.83
1207;BME280;593;53.184;8.216;2022-08-25T13:58:25;101204.03;;;31.15;52.54
1207;BME280;593;53.184;8.216;2022-08-25T14:03:41;101196.75;;;31.24;53.65
1207;BME280;593;53.184;8.216;2022-08-25T14:06:22;101200.72;;;31.34;52.48
1207;BME280;593;53.184;8.216;2022-08-25T14:09:05;101201.06;;;31.43;52.28
1207;BME280;593;53.184;8.216;2022-08-25T14:11:54;101196.22;;;31.50;52.03
1207;BME280;593;53.184;8.216;2022-08-25T14:17:00;101201.34;;;31.62;50.92
1207;BME280;593;53.184;8.216;2022-08-25T14:19:25;101192.91;;;31.66;52.26
1207;BME280;593;53.184;8.216;2022-08-25T14:21:55;101182.47;;;31.66;51.35
1207;BME280;593;53.184;8.216;2022-08-25T14:24:34;101195.66;;;31.77;51.78
1207;BME280;593;53.184;8.216;2022-08-25T14:27:04;101181.56;;;31.77;52.12
1207;BME280;593;53.184;8.216;2022-08-25T14:29:32;101177.09;;;31.83;53.05
1207;BME280;593;53.184;8.216;2022-08-25T14:31:58;101176.25;;;31.86;53.71
1207;BME280;593;53.184;8.216;2022-08-25T14:34:27;101183.44;;;31.94;54.39
1207;BME280;593;53.184;8.216;2022-08-25T14:36:53;101173.44;;;31.86;53.08
1207;BME280;593;53.184;8.216;2022-08-25T14:39:19;101169.75;;;31.92;53.28
1207;BME280;593;53.184;8.216;2022-08-25T14:41:44;101163.75;;;31.90;52.21
1207;BME280;593;53.184;8.216;2022-08-25T14:44:11;101156.88;;;31.98;51.97
1207;BME280;593;53.184;8.216;2022-08-25T14:46:41;101161.22;;;32.06;51.66
1207;BME280;593;53.184;8.216;2022-08-25T14:49:14;101157.59;;;32.06;51.99
1207;BME280;593;53.184;8.216;2022-08-25T14:52:06;101156.34;;;32.10;51.43
1207;BME280;593;53.184;8.216;2022-08-25T14:54:36;101153.47;;;32.17;51.14
1207;BME280;593;53.184;8.216;2022-08-25T14:57:03;101167.91;;;32.19;50.92
1207;BME280;593;53.184;8.216;2022-08-25T14:59:30;101163.91;;;32.20;50.25
1207;BME280;593;53.184;8.216;2022-08-25T15:01:57;101153.09;;;32.15;51.31